sensor_id;sensor_type;location;lat;lon;timestamp;temperature;humidity
65770;DHT22;52512;47.650;8.578;2022-09-01T00:00:09;16.80;99.90
65770;DHT22;52512;47.650;8.578;2022-09-01T00:02:35;16.80;99.90
65770;DHT22;52512;47.650;8.578;2022-09-01T00:05:02;16.80;99.90
65770;DHT22;52512;47.650;8.578;2022-09-01T00:07:29;16.70;99.90
65770;DHT22;52512;47.650;8.578;2022-09-01T00:09:56;16.70;99.90
65770;DHT22;52512;47.650;8.578;2022-09-01T00:12:22;16.70;99.90
65770;DHT22;52512;47.650;8.578;2022-09-01T00:14:50;16.70;99.90
65770;DHT22;52512;47.650;8.578;2022-09-01T00:17:15;16.70;99.90
65770;DHT22;52512;47.650;8.578;2022-09-01T00:19:41;16.60;99.90
65770;DHT22;52512;47.650;8.578;2022-09-01T00:22:07;16.60;99.90
65770;DHT22;52512;47.650;8.578;2022-09-01T00:24:36;16.60;99.90
65770;DHT22;52512;47.650;8.578;2022-09-01T00:27:03;16.60;99.90
65770;DHT22;52512;47.650;8.578;2022-09-01T00:29:28;16.60;99.90
65770;DHT22;52512;47.650;8.578;2022-09-01T00:31:54;16.60;99.90
65770;DHT22;52512;47.650;8.578;2022-09-01T00:34:20;16.50;99.90
65770;DHT22;52512;47.650;8.578;2022-09-01T00:36:46;16.50;99.90
65770;DHT22;52512;47.650;8.578;2022-09-01T00:39:15;16.50;99.90
65770;DHT22;52512;47.650;8.578;2022-09-01T00:41:42;16.50;99.90
65770;DHT22;52512;47.650;8.578;2022-09-01T00:44:11;16.40;99.90
65770;DHT22;52512;47.650;8.578;2022-09-01T00:46:46;16.40;99.90
65770;DHT22;52512;47.650;8.578;2022-09-01T00:51:59;16.40;99.90
65770;DHT22;52512;47.650;8.578;2022-09-01T00:54:29;16.40;99.90
65770;DHT22;52512;47.650;8.578;2022-09-01T00:56:57;16.30;99.90
65770;DHT22;52512;47.650;8.578;2022-09-01T00:59:23;16.30;99.90
65770;DHT22;52512;47.650;8.578;2022-09-01T01:01:51;16.30;99.90
65770;DHT22;52512;47.650;8.578;2022-09-01T01:04:18;16.30;99.90
65770;DHT22;52512;47.650;8.578;2022-09-01T01:06:47;16.30;99.90
65770;DHT22;52512;47.650;8.578;2022-09-01T01:09:19;16.30;99.90
65770;DHT22;52512;47.650;8.578;2022-09-01T01:11:46;16.20;99.90
65770;DHT22;52512;47.650;8.578;2022-09-01T01:14:14;16.20;99.90
65770;DHT22;52512;47.650;8.578;2022-09-01T01:16:47;16.10;99.90
65770;DHT22;52512;47.650;8.578;2022-09-01T01:19:24;16.10;99.90
65770;DHT22;52512;47.650;8.578;2022-09-01T01:22:21;16.10;99.90
65770;DHT22;52512;47.650;8.578;2022-09-01T01:25:07;16.10;99.90
65770;DHT22;52512;47.650;8.578;2022-09-01T01:27:33;16.10;99.90
65770;DHT22;52512;47.650;8.578;2022-09-01T01:30:03;16.10;99.90
65770;DHT22;52512;47.650;8.578;2022-09-01T01:32:32;16.10;99.90
65770;DHT22;52512;47.650;8.578;2022-09-01T01:34:57;16.10;99.90
65770;DHT22;52512;47.650;8.578;2022-09-01T01:37:24;16.10;99.90
65770;DHT22;52512;47.650;8.578;2022-09-01T01:39:51;16.10;99.90
65770;DHT22;52512;47.650;8.578;2022-09-01T01:42:17;16.00;99.90
65770;DHT22;52512;47.650;8.578;2022-09-01T01:44:43;16.00;99.90
65770;DHT22;52512;47.650;8.578;2022-09-01T01:47:11;16.00;99.90
65770;DHT22;52512;47.650;8.578;2022-09-01T01:49:39;16.00;99.90
65770;DHT22;52512;47.650;8.578;2022-09-01T01:52:09;16.00;99.90
65770;DHT22;52512;47.650;8.578;2022-09-01T01:54:35;15.90;99.90
65770;DHT22;52512;47.650;8.578;2022-09-01T01:57:02;15.90;99.90
65770;DHT22;52512;47.650;8.578;2022-09-01T01:59:29;15.90;99.90
65770;DHT22;52512;47.650;8.578;2022-09-01T02:01:55;15.90;99.90
65770;DHT22;52512;47.650;8.578;2022-09-01T02:04:21;15.90;99.90
65770;DHT22;52512;47.650;8.578;2022-09-01T02:06:48;15.90;99.90
65770;DHT22;52512;47.650;8.578;2022-09-01T02:09:17;15.90;99.90
65770;DHT22;52512;47.650;8.578;2022-09-01T02:11:43;15.90;99.90
65770;DHT22;52512;47.650;8.578;2022-09-01T02:14:10;15.90;99.90
65770;DHT22;52512;47.650;8.578;2022-09-01T02:16:37;15.80;99.90
65770;DHT22;52512;47.650;8.578;2022-09-01T02:19:06;15.80;99.90
65770;DHT22;52512;47.650;8.578;2022-09-01T02:21:33;15.70;99.90
65770;DHT22;52512;47.650;8.578;2022-09-01T02:24:02;15.80;99.90
65770;DHT22;52512;47.650;8.578;2022-09-01T02:26:40;15.70;99.90
65770;DHT22;52512;47.650;8.578;2022-09-01T02:29:10;15.70;99.90
65770;DHT22;52512;47.650;8.578;2022-09-01T02:31:42;15.70;99.90
65770;DHT22;52512;47.650;8.578;2022-09-01T02:34:08;15.70;99.90
65770;DHT22;52512;47.650;8.578;2022-09-01T02:36:36;15.70;99.90
65770;DHT22;52512;47.650;8.578;2022-09-01T02:39:13;15.60;99.90
65770;DHT22;52512;47.650;8.578;2022-09-01T02:41:38;15.60;99.90
65770;DHT22;52512;47.650;8.578;2022-09-01T02:44:04;15.60;99.90
65770;DHT22;52512;47.650;8.578;2022-09-01T02:46:37;15.60;99.90
65770;DHT22;52512;47.650;8.578;2022-09-01T02:49:10;15.60;99.90
65770;DHT22;52512;47.650;8.578;2022-09-01T02:51:50;15.60;99.90
65770;DHT22;52512;47.650;8.578;2022-09-01T02:54:19;15.60;99.90
65770;DHT22;52512;47.650;8.578;2022-09-01T02:56:47;15.60;99.90
65770;DHT22;52512;47.650;8.578;2022-09-01T02:59:15;15.60;99.90
65770;DHT22;52512;47.650;8.578;2022-09-01T03:01:41;15.60;99.90
65770;DHT22;52512;47.650;8.578;2022-09-01T03:04:10;15.60;99.90
65770;DHT22;52512;47.650;8.578;2022-09-01T03:06:40;15.60;99.90
65770;DHT22;52512;47.650;8.578;2022-09-01T03:09:38;15.50;99.90
65770;DHT22;52512;47.650;8.578;2022-09-01T03:12:10;15.60;99.90
65770;DHT22;52512;47.650;8.578;2022-09-01T03:21:26;15.70;99.90
65770;DHT22;52512;47.650;8.578;2022-09-01T03:24:15;15.70;99.90
65770;DHT22;52512;47.650;8.578;2022-09-01T03:26:42;15.70;99.90
65770;DHT22;52512;47.650;8.578;2022-09-01T03:29:08;15.70;99.90
65770;DHT22;52512;47.650;8.578;2022-09-01T03:31:35;15.70;99.90
65770;DHT22;52512;47.650;8.578;2022-09-01T03:34:01;15.70;99.90
65770;DHT22;52512;47.650;8.578;2022-09-01T03:36:29;15.80;99.90
65770;DHT22;52512;47.650;8.578;2022-09-01T03:38:55;15.80;99.90
65770;DHT22;52512;47.650;8.578;2022-09-01T03:41:24;15.80;99.90
65770;DHT22;52512;47.650;8.578;2022-09-01T03:43:51;15.80;99.90
65770;DHT22;52512;47.650;8.578;2022-09-01T03:46:20;15.80;99.90
65770;DHT22;52512;47.650;8.578;2022-09-01T03:48:55;15.80;99.90
65770;DHT22;52512;47.650;8.578;2022-09-01T03:51:23;15.80;99.90
65770;DHT22;52512;47.650;8.578;2022-09-01T03:53:50;15.80;99.90
65770;DHT22;52512;47.650;8.578;2022-09-01T03:56:18;15.80;99.90
65770;DHT22;52512;47.650;8.578;2022-09-01T03:58:44;15.90;99.90
65770;DHT22;52512;47.650;8.578;2022-09-01T04:01:12;15.90;99.90
65770;DHT22;52512;47.650;8.578;2022-09-01T04:03:38;15.90;99.90
65770;DHT22;52512;47.650;8.578;2022-09-01T04:06:07;15.90;99.90
65770;DHT22;52512;47.650;8.578;2022-09-01T04:08:34;15.90;99.90
65770;DHT22;52512;47.650;8.578;2022-09-01T04:11:03;15.90;99.90
65770;DHT22;52512;47.650;8.578;2022-09-01T04:13:37;15.90;99.90
65770;DHT22;52512;47.650;8.578;2022-09-01T04:16:04;16.00;99.90
65770;DHT22;52512;47.650;8.578;2022-09-01T04:18:35;16.00;99.90
65770;DHT22;52512;47.650;8.578;2022-09-01T04:21:01;16.00;99.90
65770;DHT22;52512;47.650;8.578;2022-09-01T04:23:31;16.00;99.90
65770;DHT22;52512;47.650;8.578;2022-09-01T04:26:05;16.00;99.90
65770;DHT22;52512;47.650;8.578;2022-09-01T04:28:38;16.00;99.90
65770;DHT22;52512;47.650;8.578;2022-09-01T04:31:07;16.00;99.90
65770;DHT22;52512;47.650;8.578;2022-09-01T04:33:35;16.00;99.90
65770;DHT22;52512;47.650;8.578;2022-09-01T04:36:12;16.00;99.90
65770;DHT22;52512;47.650;8.578;2022-09-01T04:38:38;16.00;99.90
65770;DHT22;52512;47.650;8.578;2022-09-01T04:41:06;16.00;99.90
65770;DHT22;52512;47.650;8.578;2022-09-01T04:43:34;16.00;99.90
65770;DHT22;52512;47.650;8.578;2022-09-01T04:46:00;16.00;99.90
65770;DHT22;52512;47.650;8.578;2022-09-01T04:48:25;16.00;99.90
65770;DHT22;52512;47.650;8.578;2022-09-01T04:50:51;16.00;99.90
65770;DHT22;52512;47.650;8.578;2022-09-01T04:53:18;16.10;99.90
65770;DHT22;52512;47.650;8.578;2022-09-01T04:55:46;16.10;99.90
65770;DHT22;52512;47.650;8.578;2022-09-01T04:58:15;16.10;99.90
65770;DHT22;52512;47.650;8.578;2022-09-01T05:00:44;16.10;99.90
65770;DHT22;52512;47.650;8.578;2022-09-01T05:03:12;16.10;99.90
65770;DHT22;52512;47.650;8.578;2022-09-01T05:05:43;16.10;99.90
65770;DHT22;52512;47.650;8.578;2022-09-01T05:08:11;16.10;99.90
65770;DHT22;52512;47.650;8.578;2022-09-01T05:10:45;16.10;99.90
65770;DHT22;52512;47.650;8.578;2022-09-01T05:13:13;16.10;99.90
65770;DHT22;52512;47.650;8.578;2022-09-01T05:15:43;16.10;99.90
65770;DHT22;52512;47.650;8.578;2022-09-01T05:18:18;16.10;99.90
65770;DHT22;52512;47.650;8.578;2022-09-01T05:20:53;16.10;99.90
65770;DHT22;52512;47.650;8.578;2022-09-01T05:23:20;16.10;99.90
65770;DHT22;52512;47.650;8.578;2022-09-01T05:25:48;16.10;99.90
65770;DHT22;52512;47.650;8.578;2022-09-01T05:28:18;16.10;99.90
65770;DHT22;52512;47.650;8.578;2022-09-01T05:30:45;16.10;99.90
65770;DHT22;52512;47.650;8.578;2022-09-01T05:33:13;16.10;99.90
65770;DHT22;52512;47.650;8.578;2022-09-01T05:35:52;16.10;99.90
65770;DHT22;52512;47.650;8.578;2022-09-01T05:38:20;16.20;99.90
65770;DHT22;52512;47.650;8.578;2022-09-01T05:40:55;16.20;99.90
65770;DHT22;52512;47.650;8.578;2022-09-01T05:43:22;16.20;99.90
65770;DHT22;52512;47.650;8.578;2022-09-01T05:45:48;16.20;99.90
65770;DHT22;52512;47.650;8.578;2022-09-01T05:48:14;16.20;99.90
65770;DHT22;52512;47.650;8.578;2022-09-01T05:50:44;16.20;99.90
65770;DHT22;52512;47.650;8.578;2022-09-01T05:53:12;16.20;99.90
65770;DHT22;52512;47.650;8.578;2022-09-01T05:55:46;16.20;99.90
65770;DHT22;52512;47.650;8.578;2022-09-01T05:58:14;16.20;99.90
65770;DHT22;52512;47.650;8.578;2022-09-01T06:00:42;16.30;99.90
65770;DHT22;52512;47.650;8.578;2022-09-01T06:03:11;16.20;99.90
65770;DHT22;52512;47.650;8.578;2022-09-01T06:05:40;16.20;99.90
65770;DHT22;52512;47.650;8.578;2022-09-01T06:08:07;16.30;99.90
65770;DHT22;52512;47.650;8.578;2022-09-01T06:10:36;16.30;99.90
65770;DHT22;52512;47.650;8.578;2022-09-01T06:13:05;16.30;99.90
65770;DHT22;52512;47.650;8.578;2022-09-01T06:15:32;16.30;99.90
65770;DHT22;52512;47.650;8.578;2022-09-01T06:17:58;16.30;99.90
65770;DHT22;52512;47.650;8.578;2022-09-01T06:20:25;16.40;99.90
65770;DHT22;52512;47.650;8.578;2022-09-01T06:22:52;16.40;99.90
65770;DHT22;52512;47.650;8.578;2022-09-01T06:25:19;16.40;99.90
65770;DHT22;52512;47.650;8.578;2022-09-01T06:27:46;16.50;99.90
65770;DHT22;52512;47.650;8.578;2022-09-01T06:30:17;16.50;99.90
65770;DHT22;52512;47.650;8.578;2022-09-01T06:32:48;16.50;99.90
65770;DHT22;52512;47.650;8.578;2022-09-01T06:35:19;16.50;99.90
65770;DHT22;52512;47.650;8.578;2022-09-01T06:37:45;16.50;99.90
65770;DHT22;52512;47.650;8.578;2022-09-01T06:40:14;16.50;99.90
65770;DHT22;52512;47.650;8.578;2022-09-01T06:42:44;16.60;99.90
65770;DHT22;52512;47.650;8.578;2022-09-01T06:45:13;16.60;99.90
65770;DHT22;52512;47.650;8.578;2022-09-01T06:47:40;16.60;99.90
65770;DHT22;52512;47.650;8.578;2022-09-01T06:50:09;16.60;99.90
65770;DHT22;52512;47.650;8.578;2022-09-01T06:52:35;16.70;99.90
65770;DHT22;52512;47.650;8.578;2022-09-01T06:55:05;16.70;99.90
65770;DHT22;52512;47.650;8.578;2022-09-01T06:57:34;16.70;99.90
65770;DHT22;52512;47.650;8.578;2022-09-01T07:00:00;16.70;99.90
65770;DHT22;52512;47.650;8.578;2022-09-01T07:02:31;16.70;99.90
65770;DHT22;52512;47.650;8.578;2022-09-01T07:04:58;16.70;99.90
65770;DHT22;52512;47.650;8.578;2022-09-01T07:07:24;16.80;99.90
65770;DHT22;52512;47.650;8.578;2022-09-01T07:09:52;16.80;99.90
65770;DHT22;52512;47.650;8.578;2022-09-01T07:12:17;16.80;99.90
65770;DHT22;52512;47.650;8.578;2022-09-01T07:14:46;16.80;99.90
65770;DHT22;52512;47.650;8.578;2022-09-01T07:17:13;16.80;99.90
65770;DHT22;52512;47.650;8.578;2022-09-01T07:19:40;16.90;99.90
65770;DHT22;52512;47.650;8.578;2022-09-01T07:22:05;16.90;99.90
65770;DHT22;52512;47.650;8.578;2022-09-01T07:24:31;17.00;99.90
65770;DHT22;52512;47.650;8.578;2022-09-01T07:26:58;17.00;99.90
65770;DHT22;52512;47.650;8.578;2022-09-01T07:29:23;17.00;99.90
65770;DHT22;52512;47.650;8.578;2022-09-01T07:31:50;17.00;99.90
65770;DHT22;52512;47.650;8.578;2022-09-01T07:34:20;17.00;99.90
65770;DHT22;52512;47.650;8.578;2022-09-01T07:36:46;17.10;99.90
65770;DHT22;52512;47.650;8.578;2022-09-01T07:39:12;17.10;99.90
65770;DHT22;52512;47.650;8.578;2022-09-01T07:41:39;17.10;99.90
65770;DHT22;52512;47.650;8.578;2022-09-01T07:44:07;17.10;99.90
65770;DHT22;52512;47.650;8.578;2022-09-01T07:46:40;17.20;99.90
65770;DHT22;52512;47.650;8.578;2022-09-01T07:49:06;17.20;99.90
65770;DHT22;52512;47.650;8.578;2022-09-01T07:51:32;17.10;99.90
65770;DHT22;52512;47.650;8.578;2022-09-01T07:53:59;17.30;99.90
65770;DHT22;52512;47.650;8.578;2022-09-01T07:56:29;17.30;99.90
65770;DHT22;52512;47.650;8.578;2022-09-01T07:58:58;17.30;99.90
65770;DHT22;52512;47.650;8.578;2022-09-01T08:01:29;17.40;99.90
65770;DHT22;52512;47.650;8.578;2022-09-01T08:03:58;17.40;99.90
65770;DHT22;52512;47.650;8.578;2022-09-01T08:06:28;17.40;99.90
65770;DHT22;52512;47.650;8.578;2022-09-01T08:08:58;17.50;99.90
65770;DHT22;52512;47.650;8.578;2022-09-01T08:11:30;17.50;99.90
65770;DHT22;52512;47.650;8.578;2022-09-01T08:14:02;17.50;99.90
65770;DHT22;52512;47.650;8.578;2022-09-01T08:16:29;17.60;99.90
65770;DHT22;52512;47.650;8.578;2022-09-01T08:18:56;17.60;99.90
65770;DHT22;52512;47.650;8.578;2022-09-01T08:21:23;17.70;99.90
65770;DHT22;52512;47.650;8.578;2022-09-01T08:23:51;17.70;99.90
65770;DHT22;52512;47.650;8.578;2022-09-01T08:26:23;17.80;99.90
65770;DHT22;52512;47.650;8.578;2022-09-01T08:28:49;17.80;99.90
65770;DHT22;52512;47.650;8.578;2022-09-01T08:31:19;17.80;99.90
65770;DHT22;52512;47.650;8.578;2022-09-01T08:33:51;17.90;99.90
65770;DHT22;52512;47.650;8.578;2022-09-01T08:36:22;17.90;99.90
65770;DHT22;52512;47.650;8.578;2022-09-01T08:55:25;18.20;99.90
65770;DHT22;52512;47.650;8.578;2022-09-01T08:58:09;18.20;99.90
65770;DHT22;52512;47.650;8.578;2022-09-01T09:00:43;18.30;99.90
65770;DHT22;52512;47.650;8.578;2022-09-01T09:06:37;18.40;99.90
65770;DHT22;52512;47.650;8.578;2022-09-01T09:09:29;18.50;99.90
65770;DHT22;52512;47.650;8.578;2022-09-01T09:12:43;18.50;99.90
65770;DHT22;52512;47.650;8.578;2022-09-01T09:15:31;18.50;99.90
65770;DHT22;52512;47.650;8.578;2022-09-01T09:20:55;18.60;99.90
65770;DHT22;52512;47.650;8.578;2022-09-01T09:23:28;18.70;99.90
65770;DHT22;52512;47.650;8.578;2022-09-01T09:25:58;18.80;99.90
65770;DHT22;52512;47.650;8.578;2022-09-01T09:28:27;18.80;99.90
65770;DHT22;52512;47.650;8.578;2022-09-01T09:31:28;18.80;99.90
65770;DHT22;52512;47.650;8.578;2022-09-01T09:33:58;18.90;99.90
65770;DHT22;52512;47.650;8.578;2022-09-01T09:36:39;19.00;99.90
65770;DHT22;52512;47.650;8.578;2022-09-01T11:14:32;20.40;99.90
65770;DHT22;52512;47.650;8.578;2022-09-01T11:17:20;20.50;99.90
65770;DHT22;52512;47.650;8.578;2022-09-01T11:22:26;20.50;99.90
65770;DHT22;52512;47.650;8.578;2022-09-01T11:28:04;20.60;99.90
65770;DHT22;52512;47.650;8.578;2022-09-01T11:39:04;20.70;99.90
65770;DHT22;52512;47.650;8.578;2022-09-01T11:44:39;20.80;99.90
65770;DHT22;52512;47.650;8.578;2022-09-01T11:47:16;20.80;99.90
65770;DHT22;52512;47.650;8.578;2022-09-01T11:49:52;20.90;99.90
65770;DHT22;52512;47.650;8.578;2022-09-01T11:52:21;20.90;99.90
65770;DHT22;52512;47.650;8.578;2022-09-01T11:54:48;20.90;99.90
65770;DHT22;52512;47.650;8.578;2022-09-01T11:59:47;20.90;99.90
65770;DHT22;52512;47.650;8.578;2022-09-01T12:02:19;20.90;99.90
65770;DHT22;52512;47.650;8.578;2022-09-01T12:04:45;21.00;99.90
65770;DHT22;52512;47.650;8.578;2022-09-01T12:07:13;21.00;99.90
65770;DHT22;52512;47.650;8.578;2022-09-01T12:09:48;21.00;99.90
65770;DHT22;52512;47.650;8.578;2022-09-01T12:12:28;21.10;99.90
65770;DHT22;52512;47.650;8.578;2022-09-01T12:14:56;21.10;99.90
65770;DHT22;52512;47.650;8.578;2022-09-01T12:17:22;21.10;99.90
65770;DHT22;52512;47.650;8.578;2022-09-01T12:19:48;21.10;99.90
65770;DHT22;52512;47.650;8.578;2022-09-01T12:22:16;21.20;99.90
65770;DHT22;52512;47.650;8.578;2022-09-01T12:24:45;21.20;99.90
65770;DHT22;52512;47.650;8.578;2022-09-01T12:27:12;21.30;99.90
65770;DHT22;52512;47.650;8.578;2022-09-01T12:29:39;21.30;99.90
65770;DHT22;52512;47.650;8.578;2022-09-01T12:32:05;21.30;99.90
65770;DHT22;52512;47.650;8.578;2022-09-01T12:34:58;21.30;99.90
65770;DHT22;52512;47.650;8.578;2022-09-01T12:37:25;21.30;99.90
65770;DHT22;52512;47.650;8.578;2022-09-01T12:39:53;21.40;99.90
65770;DHT22;52512;47.650;8.578;2022-09-01T12:45:05;21.40;99.90
65770;DHT22;52512;47.650;8.578;2022-09-01T12:50:01;21.70;99.90
65770;DHT22;52512;47.650;8.578;2022-09-01T12:52:29;21.90;99.90
65770;DHT22;52512;47.650;8.578;2022-09-01T12:57:32;22.10;99.90
65770;DHT22;52512;47.650;8.578;2022-09-01T13:08:00;22.40;99.90
65770;DHT22;52512;47.650;8.578;2022-09-01T13:10:31;22.40;99.90
65770;DHT22;52512;47.650;8.578;2022-09-01T13:12:57;22.30;99.90
65770;DHT22;52512;47.650;8.578;2022-09-01T13:15:24;22.40;99.90
65770;DHT22;52512;47.650;8.578;2022-09-01T13:17:51;22.30;99.90
65770;DHT22;52512;47.650;8.578;2022-09-01T13:20:17;22.40;99.90
65770;DHT22;52512;47.650;8.578;2022-09-01T13:22:43;22.50;99.90
65770;DHT22;52512;47.650;8.578;2022-09-01T13:25:13;22.50;99.90
65770;DHT22;52512;47.650;8.578;2022-09-01T13:27:42;22.50;99.90
65770;DHT22;52512;47.650;8.578;2022-09-01T13:30:10;22.50;99.90
65770;DHT22;52512;47.650;8.578;2022-09-01T13:32:37;22.50;99.90
65770;DHT22;52512;47.650;8.578;2022-09-01T13:35:03;22.60;99.90
65770;DHT22;52512;47.650;8.578;2022-09-01T13:37:29;22.60;99.90
65770;DHT22;52512;47.650;8.578;2022-09-01T13:39:54;22.60;99.90
65770;DHT22;52512;47.650;8.578;2022-09-01T13:42:20;22.50;99.90
65770;DHT22;52512;47.650;8.578;2022-09-01T13:44:46;22.50;99.90
65770;DHT22;52512;47.650;8.578;2022-09-01T13:47:12;22.40;99.90
65770;DHT22;52512;47.650;8.578;2022-09-01T13:49:38;22.60;99.90
65770;DHT22;52512;47.650;8.578;2022-09-01T13:52:03;22.70;99.90
65770;DHT22;52512;47.650;8.578;2022-09-01T13:54:29;22.80;99.90
65770;DHT22;52512;47.650;8.578;2022-09-01T13:56:55;22.80;99.90
65770;DHT22;52512;47.650;8.578;2022-09-01T13:59:21;22.90;99.90
65770;DHT22;52512;47.650;8.578;2022-09-01T14:01:47;22.90;99.90
65770;DHT22;52512;47.650;8.578;2022-09-01T14:04:12;22.70;99.90
65770;DHT22;52512;47.650;8.578;2022-09-01T14:06:40;22.60;99.90
65770;DHT22;52512;47.650;8.578;2022-09-01T14:09:06;22.50;99.90
65770;DHT22;52512;47.650;8.578;2022-09-01T14:11:31;22.60;99.90
65770;DHT22;52512;47.650;8.578;2022-09-01T14:13:57;22.70;99.90
65770;DHT22;52512;47.650;8.578;2022-09-01T14:16:22;22.70;99.90
65770;DHT22;52512;47.650;8.578;2022-09-01T14:18:48;22.90;99.90
65770;DHT22;52512;47.650;8.578;2022-09-01T14:21:15;22.90;99.90
65770;DHT22;52512;47.650;8.578;2022-09-01T14:23:42;23.10;99.90
65770;DHT22;52512;47.650;8.578;2022-09-01T14:26:13;23.00;99.90
65770;DHT22;52512;47.650;8.578;2022-09-01T14:28:40;23.00;99.90
65770;DHT22;52512;47.650;8.578;2022-09-01T14:31:11;23.00;99.90
65770;DHT22;52512;47.650;8.578;2022-09-01T14:33:38;23.10;99.90
65770;DHT22;52512;47.650;8.578;2022-09-01T14:36:04;23.10;99.90
65770;DHT22;52512;47.650;8.578;2022-09-01T14:38:31;23.10;99.90
65770;DHT22;52512;47.650;8.578;2022-09-01T14:40:57;23.10;99.90
65770;DHT22;52512;47.650;8.578;2022-09-01T14:43:23;23.30;99.90
65770;DHT22;52512;47.650;8.578;2022-09-01T14:46:01;23.30;99.90
65770;DHT22;52512;47.650;8.578;2022-09-01T14:48:31;23.30;99.90
65770;DHT22;52512;47.650;8.578;2022-09-01T14:50:57;23.20;99.90
65770;DHT22;52512;47.650;8.578;2022-09-01T14:53:23;23.20;99.90
65770;DHT22;52512;47.650;8.578;2022-09-01T14:55:49;23.20;99.90
65770;DHT22;52512;47.650;8.578;2022-09-01T14:58:14;23.20;99.90
65770;DHT22;52512;47.650;8.578;2022-09-01T15:00:41;23.20;99.90
65770;DHT22;52512;47.650;8.578;2022-09-01T15:03:09;23.20;99.90
65770;DHT22;52512;47.650;8.578;2022-09-01T15:05:36;23.20;99.90
65770;DHT22;52512;47.650;8.578;2022-09-01T15:08:02;23.30;99.90
65770;DHT22;52512;47.650;8.578;2022-09-01T15:10:28;23.40;99.90
65770;DHT22;52512;47.650;8.578;2022-09-01T15:12:55;23.50;99.90
65770;DHT22;52512;47.650;8.578;2022-09-01T15:15:21;23.60;99.90
65770;DHT22;52512;47.650;8.578;2022-09-01T15:17:47;23.70;99.90
65770;DHT22;52512;47.650;8.578;2022-09-01T15:20:13;23.80;99.90
65770;DHT22;52512;47.650;8.578;2022-09-01T15:22:57;23.70;99.90
65770;DHT22;52512;47.650;8.578;2022-09-01T15:25:23;23.70;99.90
65770;DHT22;52512;47.650;8.578;2022-09-01T15:27:49;23.70;99.90
65770;DHT22;52512;47.650;8.578;2022-09-01T15:30:15;23.50;99.90
65770;DHT22;52512;47.650;8.578;2022-09-01T15:32:42;23.60;99.90
65770;DHT22;52512;47.650;8.578;2022-09-01T15:35:08;23.60;99.90
65770;DHT22;52512;47.650;8.578;2022-09-01T15:37:34;23.60;99.90
65770;DHT22;52512;47.650;8.578;2022-09-01T15:40:00;23.70;99.90
65770;DHT22;52512;47.650;8.578;2022-09-01T15:42:26;23.70;99.90
65770;DHT22;52512;47.650;8.578;2022-09-01T15:44:51;23.70;99.90
65770;DHT22;52512;47.650;8.578;2022-09-01T15:47:17;23.80;99.90
65770;DHT22;52512;47.650;8.578;2022-09-01T15:49:43;23.80;99.90
65770;DHT22;52512;47.650;8.578;2022-09-01T15:52:09;23.80;99.90
65770;DHT22;52512;47.650;8.578;2022-09-01T15:54:38;23.90;99.90
65770;DHT22;52512;47.650;8.578;2022-09-01T15:57:06;23.90;99.90
65770;DHT22;52512;47.650;8.578;2022-09-01T15:59:32;24.00;99.90
65770;DHT22;52512;47.650;8.578;2022-09-01T16:01:58;24.00;99.90
65770;DHT22;52512;47.650;8.578;2022-09-01T16:04:24;24.10;99.90
65770;DHT22;52512;47.650;8.578;2022-09-01T16:06:50;24.00;99.90
65770;DHT22;52512;47.650;8.578;2022-09-01T16:09:17;23.90;99.60
65770;DHT22;52512;47.650;8.578;2022-09-01T16:11:45;23.80;99.90
65770;DHT22;52512;47.650;8.578;2022-09-01T16:14:11;23.70;99.90
65770;DHT22;52512;47.650;8.578;2022-09-01T16:22:27;23.60;99.90
65770;DHT22;52512;47.650;8.578;2022-09-01T16:24:55;23.60;99.90
65770;DHT22;52512;47.650;8.578;2022-09-01T16:27:38;23.60;99.90
65770;DHT22;52512;47.650;8.578;2022-09-01T16:30:07;23.70;99.90
65770;DHT22;52512;47.650;8.578;2022-09-01T16:32:37;23.60;99.90
65770;DHT22;52512;47.650;8.578;2022-09-01T16:35:03;23.70;99.90
65770;DHT22;52512;47.650;8.578;2022-09-01T16:40:38;23.70;99.50
65770;DHT22;52512;47.650;8.578;2022-09-01T16:43:22;23.60;98.80
65770;DHT22;52512;47.650;8.578;2022-09-01T16:45:55;23.50;99.70
65770;DHT22;52512;47.650;8.578;2022-09-01T16:51:25;23.60;99.90
65770;DHT22;52512;47.650;8.578;2022-09-01T16:54:01;23.60;99.90
65770;DHT22;52512;47.650;8.578;2022-09-01T17:01:51;23.50;99.80
65770;DHT22;52512;47.650;8.578;2022-09-01T17:12:31;23.40;99.90
65770;DHT22;52512;47.650;8.578;2022-09-01T17:15:09;23.30;99.90
65770;DHT22;52512;47.650;8.578;2022-09-01T17:17:54;23.30;99.90
65770;DHT22;52512;47.650;8.578;2022-09-01T17:20:26;23.30;99.90
65770;DHT22;52512;47.650;8.578;2022-09-01T17:22:56;23.20;99.90
65770;DHT22;52512;47.650;8.578;2022-09-01T17:25:32;23.10;99.90
65770;DHT22;52512;47.650;8.578;2022-09-01T17:28:07;23.00;99.90
65770;DHT22;52512;47.650;8.578;2022-09-01T17:30:40;23.00;99.90
65770;DHT22;52512;47.650;8.578;2022-09-01T17:36:14;22.70;99.90
65770;DHT22;52512;47.650;8.578;2022-09-01T17:49:22;22.40;99.90
65770;DHT22;52512;47.650;8.578;2022-09-01T17:51:59;22.40;99.90
65770;DHT22;52512;47.650;8.578;2022-09-01T17:57:17;22.30;99.90
65770;DHT22;52512;47.650;8.578;2022-09-01T17:59:49;22.20;99.90
65770;DHT22;52512;47.650;8.578;2022-09-01T18:05:10;22.10;99.90
65770;DHT22;52512;47.650;8.578;2022-09-01T18:10:31;22.00;99.90
65770;DHT22;52512;47.650;8.578;2022-09-01T18:13:02;22.00;99.90
65770;DHT22;52512;47.650;8.578;2022-09-01T18:15:37;21.90;99.90
65770;DHT22;52512;47.650;8.578;2022-09-01T18:21:02;21.80;99.90
65770;DHT22;52512;47.650;8.578;2022-09-01T18:23:31;21.80;99.90
65770;DHT22;52512;47.650;8.578;2022-09-01T18:28:58;21.70;99.90
65770;DHT22;52512;47.650;8.578;2022-09-01T18:34:06;21.60;99.90
65770;DHT22;52512;47.650;8.578;2022-09-01T18:41:48;21.40;99.90
65770;DHT22;52512;47.650;8.578;2022-09-01T18:44:31;21.40;99.90
65770;DHT22;52512;47.650;8.578;2022-09-01T18:47:14;21.40;99.90
65770;DHT22;52512;47.650;8.578;2022-09-01T18:52:19;21.30;99.90
65770;DHT22;52512;47.650;8.578;2022-09-01T18:55:12;21.20;99.90
65770;DHT22;52512;47.650;8.578;2022-09-01T18:57:43;21.20;99.90
65770;DHT22;52512;47.650;8.578;2022-09-01T19:00:25;21.10;99.90
65770;DHT22;52512;47.650;8.578;2022-09-01T19:05:53;21.00;99.90
65770;DHT22;52512;47.650;8.578;2022-09-01T19:09:00;20.90;99.90
65770;DHT22;52512;47.650;8.578;2022-09-01T19:19:57;20.60;99.90
65770;DHT22;52512;47.650;8.578;2022-09-01T19:22:46;20.60;99.90
65770;DHT22;52512;47.650;8.578;2022-09-01T19:25:15;20.50;99.90
65770;DHT22;52512;47.650;8.578;2022-09-01T19:28:20;20.40;99.90
65770;DHT22;52512;47.650;8.578;2022-09-01T19:31:02;20.40;99.90
65770;DHT22;52512;47.650;8.578;2022-09-01T19:33:37;20.30;99.90
65770;DHT22;52512;47.650;8.578;2022-09-01T19:36:06;20.30;99.90
65770;DHT22;52512;47.650;8.578;2022-09-01T19:38:34;20.20;99.90
65770;DHT22;52512;47.650;8.578;2022-09-01T19:43:39;20.10;99.90
65770;DHT22;52512;47.650;8.578;2022-09-01T19:51:56;19.90;99.90